sensor_id;sensor_type;location;lat;lon;timestamp;pressure;altitude;pressure_sealevel;temperature;humidity
17260;BME280;8746;49.230;9.220;2023-05-03T00:02:08;100816.06;;;8.32;99.47
17260;BME280;8746;49.230;9.220;2023-05-03T00:04:34;100819.59;;;8.30;98.97
17260;BME280;8746;49.230;9.220;2023-05-03T00:07:00;100817.88;;;8.29;99.73
17260;BME280;8746;49.230;9.220;2023-05-03T00:09:25;100817.81;;;8.30;98.48
17260;BME280;8746;49.230;9.220;2023-05-03T00:11:50;100820.69;;;8.16;98.08
17260;BME280;8746;49.230;9.220;2023-05-03T00:14:17;100823.41;;;8.12;99.31
17260;BME280;8746;49.230;9.220;2023-05-03T00:16:42;100818.03;;;8.18;99.27
17260;BME280;8746;49.230;9.220;2023-05-03T00:19:08;100813.50;;;8.28;98.51
17260;BME280;8746;49.230;9.220;2023-05-03T00:21:33;100818.13;;;8.12;97.85
17260;BME280;8746;49.230;9.220;2023-05-03T00:23:59;100814.63;;;8.13;98.34
17260;BME280;8746;49.230;9.220;2023-05-03T00:26:24;100810.16;;;8.18;99.08
17260;BME280;8746;49.230;9.220;2023-05-03T00:28:50;100807.41;;;8.26;97.81
17260;BME280;8746;49.230;9.220;2023-05-03T00:31:16;100813.56;;;8.25;98.27
17260;BME280;8746;49.230;9.220;2023-05-03T00:33:41;100816.22;;;8.22;97.35
17260;BME280;8746;49.230;9.220;2023-05-03T00:36:12;100811.97;;;8.14;99.08
17260;BME280;8746;49.230;9.220;2023-05-03T00:38:38;100817.47;;;7.99;100.00
17260;BME280;8746;49.230;9.220;2023-05-03T00:41:04;100814.59;;;7.55;100.00
17260;BME280;8746;49.230;9.220;2023-05-03T00:43:31;100812.88;;;7.51;100.00
17260;BME280;8746;49.230;9.220;2023-05-03T00:46:00;100809.41;;;7.50;100.00
17260;BME280;8746;49.230;9.220;2023-05-03T00:48:28;100812.91;;;7.52;100.00
17260;BME280;8746;49.230;9.220;2023-05-03T00:50:55;100791.00;;;7.52;100.00
17260;BME280;8746;49.230;9.220;2023-05-03T00:53:22;100798.81;;;7.57;100.00
17260;BME280;8746;49.230;9.220;2023-05-03T00:55:50;100797.03;;;7.60;100.00
17260;BME280;8746;49.230;9.220;2023-05-03T00:58:16;100798.53;;;7.78;100.00
17260;BME280;8746;49.230;9.220;2023-05-03T01:00:42;100802.03;;;7.77;100.00
17260;BME280;8746;49.230;9.220;2023-05-03T01:03:07;100802.03;;;7.77;100.00
17260;BME280;8746;49.230;9.220;2023-05-03T01:05:42;100800.19;;;7.82;100.00
17260;BME280;8746;49.230;9.220;2023-05-03T01:08:26;100801.03;;;7.86;99.19
17260;BME280;8746;49.230;9.220;2023-05-03T01:11:00;100805.25;;;7.95;98.93
17260;BME280;8746;49.230;9.220;2023-05-03T01:13:51;100799.19;;;7.91;98.77
17260;BME280;8746;49.230;9.220;2023-05-03T01:19:03;100805.53;;;7.76;99.36
17260;BME280;8746;49.230;9.220;2023-05-03T01:21:29;100801.22;;;7.70;100.00
17260;BME280;8746;49.230;9.220;2023-05-03T01:24:13;100799.53;;;7.69;99.54
17260;BME280;8746;49.230;9.220;2023-05-03T01:26:40;100802.28;;;7.60;99.58
17260;BME280;8746;49.230;9.220;2023-05-03T01:29:06;100800.47;;;7.64;100.00
17260;BME280;8746;49.230;9.220;2023-05-03T01:31:35;100797.88;;;7.62;99.59
17260;BME280;8746;49.230;9.220;2023-05-03T01:36:40;100793.47;;;7.63;99.76
17260;BME280;8746;49.230;9.220;2023-05-03T01:39:11;100795.41;;;7.51;100.00
17260;BME280;8746;49.230;9.220;2023-05-03T01:41:40;100790.28;;;7.41;100.00
17260;BME280;8746;49.230;9.220;2023-05-03T01:44:10;100795.56;;;7.39;100.00
17260;BME280;8746;49.230;9.220;2023-05-03T01:46:43;100799.06;;;7.38;100.00
17260;BME280;8746;49.230;9.220;2023-05-03T01:49:08;100798.19;;;7.39;100.00
17260;BME280;8746;49.230;9.220;2023-05-03T01:51:34;100797.19;;;7.48;100.00
17260;BME280;8746;49.230;9.220;2023-05-03T01:53:59;100802.53;;;7.40;100.00
17260;BME280;8746;49.230;9.220;2023-05-03T01:56:25;100796.47;;;7.36;100.00
17260;BME280;8746;49.230;9.220;2023-05-03T01:58:50;100797.38;;;7.34;100.00
17260;BME280;8746;49.230;9.220;2023-05-03T02:01:16;100797.38;;;7.34;100.00
17260;BME280;8746;49.230;9.220;2023-05-03T02:03:41;100799.25;;;7.26;100.00
17260;BME280;8746;49.230;9.220;2023-05-03T02:06:06;100788.94;;;7.10;100.00
17260;BME280;8746;49.230;9.220;2023-05-03T02:08:32;100787.88;;;7.24;100.00
17260;BME280;8746;49.230;9.220;2023-05-03T02:10:57;100787.19;;;7.09;100.00
17260;BME280;8746;49.230;9.220;2023-05-03T02:13:23;100795.19;;;6.98;100.00
17260;BME280;8746;49.230;9.220;2023-05-03T02:15:48;100791.78;;;6.92;100.00
17260;BME280;8746;49.230;9.220;2023-05-03T02:18:13;100790.91;;;6.89;100.00
17260;BME280;8746;49.230;9.220;2023-05-03T02:20:43;100792.66;;;6.90;100.00
17260;BME280;8746;49.230;9.220;2023-05-03T02:23:09;100796.16;;;6.89;100.00
17260;BME280;8746;49.230;9.220;2023-05-03T02:25:34;100792.69;;;6.87;100.00
17260;BME280;8746;49.230;9.220;2023-05-03T02:28:00;100797.91;;;6.87;100.00
17260;BME280;8746;49.230;9.220;2023-05-03T02:30:25;100795.38;;;6.83;100.00
17260;BME280;8746;49.230;9.220;2023-05-03T02:32:51;100795.41;;;6.80;100.00
17260;BME280;8746;49.230;9.220;2023-05-03T02:35:16;100801.75;;;6.58;100.00
17260;BME280;8746;49.230;9.220;2023-05-03T02:37:41;100800.88;;;6.60;100.00
17260;BME280;8746;49.230;9.220;2023-05-03T02:40:07;100806.00;;;6.69;100.00
17260;BME280;8746;49.230;9.220;2023-05-03T02:42:33;100803.28;;;6.78;100.00
17260;BME280;8746;49.230;9.220;2023-05-03T02:44:59;100802.53;;;6.67;100.00
17260;BME280;8746;49.230;9.220;2023-05-03T02:47:24;100796.44;;;6.62;100.00
17260;BME280;8746;49.230;9.220;2023-05-03T02:49:50;100798.09;;;6.73;100.00
17260;BME280;8746;49.230;9.220;2023-05-03T02:52:15;100794.59;;;6.73;100.00
17260;BME280;8746;49.230;9.220;2023-05-03T02:54:41;100792.88;;;6.70;100.00
17260;BME280;8746;49.230;9.220;2023-05-03T02:57:06;100801.53;;;6.77;100.00
17260;BME280;8746;49.230;9.220;2023-05-03T02:59:31;100801.63;;;6.68;100.00
17260;BME280;8746;49.230;9.220;2023-05-03T03:01:57;100799.13;;;6.58;100.00
17260;BME280;8746;49.230;9.220;2023-05-03T03:04:22;100796.47;;;6.63;100.00
17260;BME280;8746;49.230;9.220;2023-05-03T03:06:48;100800.84;;;6.58;100.00
17260;BME280;8746;49.230;9.220;2023-05-03T03:09:13;100797.38;;;6.57;100.00
17260;BME280;8746;49.230;9.220;2023-05-03T03:11:38;100796.50;;;6.55;100.00
17260;BME280;8746;49.230;9.220;2023-05-03T03:14:04;100791.25;;;6.58;100.00
17260;BME280;8746;49.230;9.220;2023-05-03T03:16:30;100786.88;;;6.57;100.00
17260;BME280;8746;49.230;9.220;2023-05-03T03:18:55;100796.50;;;6.55;100.00
17260;BME280;8746;49.230;9.220;2023-05-03T03:21:20;100793.06;;;6.53;100.00
17260;BME280;8746;49.230;9.220;2023-05-03T03:23:46;100800.97;;;6.47;100.00
17260;BME280;8746;49.230;9.220;2023-05-03T03:26:11;100805.22;;;6.61;100.00
17260;BME280;8746;49.230;9.220;2023-05-03T03:28:36;100805.25;;;6.57;100.00
17260;BME280;8746;49.230;9.220;2023-05-03T03:31:02;100800.03;;;6.53;100.00
17260;BME280;8746;49.230;9.220;2023-05-03T03:33:27;100807.94;;;6.51;100.00
17260;BME280;8746;49.230;9.220;2023-05-03T03:35:53;100800.91;;;6.55;100.00
17260;BME280;8746;49.230;9.220;2023-05-03T03:38:18;100814.00;;;6.56;100.00
17260;BME280;8746;49.230;9.220;2023-05-03T03:40:43;100810.56;;;6.48;100.00
17260;BME280;8746;49.230;9.220;2023-05-03T03:43:09;100814.97;;;6.43;100.00
17260;BME280;8746;49.230;9.220;2023-05-03T03:45:34;100815.94;;;6.37;100.00
17260;BME280;8746;49.230;9.220;2023-05-03T03:47:59;100819.41;;;6.38;100.00
17260;BME280;8746;49.230;9.220;2023-05-03T03:50:25;100827.31;;;6.32;100.00
17260;BME280;8746;49.230;9.220;2023-05-03T03:52:50;100823.72;;;6.42;100.00
17260;BME280;8746;49.230;9.220;2023-05-03T03:55:16;100822.03;;;6.38;100.00
17260;BME280;8746;49.230;9.220;2023-05-03T03:57:41;100825.56;;;6.34;100.00
17260;BME280;8746;49.230;9.220;2023-05-03T04:00:07;100821.22;;;6.30;100.00
17260;BME280;8746;49.230;9.220;2023-05-03T04:02:36;100823.91;;;6.22;100.00
17260;BME280;8746;49.230;9.220;2023-05-03T04:05:01;100819.53;;;6.22;100.00
17260;BME280;8746;49.230;9.220;2023-05-03T04:07:28;100825.66;;;6.20;100.00
17260;BME280;8746;49.230;9.220;2023-05-03T04:09:53;100830.97;;;6.12;100.00
17260;BME280;8746;49.230;9.220;2023-05-03T04:12:20;100827.47;;;6.10;100.00
17260;BME280;8746;49.230;9.220;2023-05-03T04:14:46;100823.84;;;6.28;100.00
17260;BME280;8746;49.230;9.220;2023-05-03T04:17:11;100837.88;;;6.21;100.00
17260;BME280;8746;49.230;9.220;2023-05-03T04:19:37;100831.75;;;6.23;100.00
17260;BME280;8746;49.230;9.220;2023-05-03T04:22:03;100835.19;;;6.32;100.00
17260;BME280;8746;49.230;9.220;2023-05-03T04:24:28;100836.06;;;6.34;100.00
17260;BME280;8746;49.230;9.220;2023-05-03T04:26:55;100841.38;;;6.20;100.00
17260;BME280;8746;49.230;9.220;2023-05-03T04:29:20;100829.09;;;6.25;100.00
17260;BME280;8746;49.230;9.220;2023-05-03T04:31:45;100839.59;;;6.25;100.00
17260;BME280;8746;49.230;9.220;2023-05-03T04:34:11;100833.50;;;6.21;100.00
17260;BME280;8746;49.230;9.220;2023-05-03T04:36:39;100832.56;;;6.29;100.00
17260;BME280;8746;49.230;9.220;2023-05-03T04:39:06;100847.47;;;6.23;100.00
17260;BME280;8746;49.230;9.220;2023-05-03T04:41:32;100843.19;;;6.15;100.00
17260;BME280;8746;49.230;9.220;2023-05-03T04:43:58;100845.72;;;6.22;100.00
17260;BME280;8746;49.230;9.220;2023-05-03T04:46:24;100843.09;;;6.22;100.00
17260;BME280;8746;49.230;9.220;2023-05-03T04:48:49;100838.72;;;6.24;100.00
17260;BME280;8746;49.230;9.220;2023-05-03T04:51:15;100854.41;;;6.31;100.00
17260;BME280;8746;49.230;9.220;2023-05-03T04:53:40;100842.97;;;6.39;100.00
17260;BME280;8746;49.230;9.220;2023-05-03T04:56:06;100842.13;;;6.39;100.00
17260;BME280;8746;49.230;9.220;2023-05-03T04:58:31;100852.50;;;6.48;100.00
17260;BME280;8746;49.230;9.220;2023-05-03T05:00:57;100846.47;;;6.40;100.00
17260;BME280;8746;49.230;9.220;2023-05-03T05:03:22;100851.72;;;6.38;100.00
17260;BME280;8746;49.230;9.220;2023-05-03T05:05:48;100862.06;;;6.55;100.00
17260;BME280;8746;49.230;9.220;2023-05-03T05:08:13;100860.19;;;6.70;100.00
17260;BME280;8746;49.230;9.220;2023-05-03T05:10:41;100858.41;;;6.72;100.00
17260;BME280;8746;49.230;9.220;2023-05-03T05:13:07;100858.38;;;6.78;100.00
17260;BME280;8746;49.230;9.220;2023-05-03T05:15:32;100861.00;;;6.75;100.00
17260;BME280;8746;49.230;9.220;2023-05-03T05:17:58;100859.13;;;6.89;100.00
17260;BME280;8746;49.230;9.220;2023-05-03T05:20:24;100860.91;;;6.84;100.00
17260;BME280;8746;49.230;9.220;2023-05-03T05:22:49;100862.53;;;6.98;100.00
17260;BME280;8746;49.230;9.220;2023-05-03T05:25:14;100866.03;;;6.97;100.00
17260;BME280;8746;49.230;9.220;2023-05-03T05:27:40;100859.88;;;7.02;100.00
17260;BME280;8746;49.230;9.220;2023-05-03T05:30:06;100860.69;;;7.04;100.00
17260;BME280;8746;49.230;9.220;2023-05-03T05:32:32;100857.09;;;7.15;100.00
17260;BME280;8746;49.230;9.220;2023-05-03T05:34:57;100859.88;;;7.02;100.00
17260;BME280;8746;49.230;9.220;2023-05-03T05:37:24;100864.09;;;7.14;100.00
17260;BME280;8746;49.230;9.220;2023-05-03T05:39:49;100861.28;;;7.30;100.00
17260;BME280;8746;49.230;9.220;2023-05-03T05:42:15;100858.53;;;7.41;99.04
17260;BME280;8746;49.230;9.220;2023-05-03T05:44:41;100855.19;;;7.28;98.77
17260;BME280;8746;49.230;9.220;2023-05-03T05:47:07;100851.59;;;7.35;99.78
17260;BME280;8746;49.230;9.220;2023-05-03T05:49:33;100857.81;;;7.28;99.98
17260;BME280;8746;49.230;9.220;2023-05-03T05:51:58;100856.03;;;7.33;100.00
17260;BME280;8746;49.230;9.220;2023-05-03T05:54:23;100861.94;;;7.50;99.65
17260;BME280;8746;49.230;9.220;2023-05-03T05:56:49;100852.91;;;7.70;98.39
17260;BME280;8746;49.230;9.220;2023-05-03T05:59:15;100858.84;;;7.84;99.07
17260;BME280;8746;49.230;9.220;2023-05-03T06:01:40;100857.09;;;7.83;96.28
17260;BME280;8746;49.230;9.220;2023-05-03T06:04:09;100854.19;;;8.02;96.42
17260;BME280;8746;49.230;9.220;2023-05-03T06:06:34;100855.72;;;8.18;96.58
17260;BME280;8746;49.230;9.220;2023-05-03T06:09:00;100860.81;;;8.28;94.33
17260;BME280;8746;49.230;9.220;2023-05-03T06:11:26;100852.97;;;8.26;94.03
17260;BME280;8746;49.230;9.220;2023-05-03T06:13:51;100853.53;;;8.45;92.80
17260;BME280;8746;49.230;9.220;2023-05-03T06:16:16;100844.00;;;8.38;92.70
17260;BME280;8746;49.230;9.220;2023-05-03T06:18:42;100854.47;;;8.41;92.45
17260;BME280;8746;49.230;9.220;2023-05-03T06:21:07;100854.06;;;8.68;92.80
17260;BME280;8746;49.230;9.220;2023-05-03T06:23:34;100850.75;;;8.55;91.81
17260;BME280;8746;49.230;9.220;2023-05-03T06:26:01;100854.88;;;8.71;92.33
17260;BME280;8746;49.230;9.220;2023-05-03T06:28:27;100853.81;;;8.81;91.25
17260;BME280;8746;49.230;9.220;2023-05-03T06:30:53;100857.22;;;8.87;91.41
17260;BME280;8746;49.230;9.220;2023-05-03T06:33:18;100860.03;;;8.76;90.72
17260;BME280;8746;49.230;9.220;2023-05-03T06:35:43;100856.34;;;8.86;91.02
17260;BME280;8746;49.230;9.220;2023-05-03T06:38:11;100857.81;;;9.01;90.76
17260;BME280;8746;49.230;9.220;2023-05-03T06:40:36;100859.50;;;9.05;90.30
17260;BME280;8746;49.230;9.220;2023-05-03T06:43:02;100854.19;;;9.08;90.05
17260;BME280;8746;49.230;9.220;2023-05-03T06:45:27;100855.84;;;9.14;90.02
17260;BME280;8746;49.230;9.220;2023-05-03T06:47:53;100860.75;;;9.31;88.65
17260;BME280;8746;49.230;9.220;2023-05-03T06:50:18;100853.53;;;9.41;89.45
17260;BME280;8746;49.230;9.220;2023-05-03T06:52:45;100853.41;;;9.47;88.80
17260;BME280;8746;49.230;9.220;2023-05-03T06:55:10;100856.00;;;9.49;88.32
17260;BME280;8746;49.230;9.220;2023-05-03T06:57:36;100847.84;;;9.61;88.31
17260;BME280;8746;49.230;9.220;2023-05-03T07:00:02;100847.13;;;9.54;87.78
17260;BME280;8746;49.230;9.220;2023-05-03T07:02:31;100836.09;;;9.76;87.82
17260;BME280;8746;49.230;9.220;2023-05-03T07:04:57;100834.25;;;9.79;86.81
17260;BME280;8746;49.230;9.220;2023-05-03T07:07:22;100834.94;;;9.88;87.13
17260;BME280;8746;49.230;9.220;2023-05-03T07:09:48;100836.53;;;9.95;85.80
17260;BME280;8746;49.230;9.220;2023-05-03T07:12:13;100831.91;;;10.05;86.74
17260;BME280;8746;49.230;9.220;2023-05-03T07:14:40;100829.13;;;10.11;86.25
17260;BME280;8746;49.230;9.220;2023-05-03T07:17:05;100833.16;;;9.88;85.89
17260;BME280;8746;49.230;9.220;2023-05-03T07:19:30;100836.44;;;9.98;86.45
17260;BME280;8746;49.230;9.220;2023-05-03T07:21:56;100831.47;;;10.23;87.39
17260;BME280;8746;49.230;9.220;2023-05-03T07:24:21;100826.84;;;10.33;85.55
17260;BME280;8746;49.230;9.220;2023-05-03T07:26:48;100827.66;;;10.35;85.04
17260;BME280;8746;49.230;9.220;2023-05-03T07:29:14;100821.06;;;10.17;84.67
17260;BME280;8746;49.230;9.220;2023-05-03T07:31:39;100818.88;;;10.35;84.90
17260;BME280;8746;49.230;9.220;2023-05-03T07:34:05;100813.59;;;10.35;84.05
17260;BME280;8746;49.230;9.220;2023-05-03T07:36:30;100808.75;;;10.54;84.06
17260;BME280;8746;49.230;9.220;2023-05-03T07:38:56;100811.66;;;10.43;83.85
17260;BME280;8746;49.230;9.220;2023-05-03T07:41:21;100801.91;;;10.47;83.46
17260;BME280;8746;49.230;9.220;2023-05-03T07:43:46;100804.22;;;10.59;83.61
17260;BME280;8746;49.230;9.220;2023-05-03T07:46:12;100794.59;;;10.89;82.86
17260;BME280;8746;49.230;9.220;2023-05-03T07:48:37;100802.56;;;10.88;81.75
17260;BME280;8746;49.230;9.220;2023-05-03T07:51:03;100801.25;;;10.71;82.06
17260;BME280;8746;49.230;9.220;2023-05-03T07:53:29;100800.09;;;10.82;82.77
17260;BME280;8746;49.230;9.220;2023-05-03T07:55:54;100796.78;;;11.06;82.64
17260;BME280;8746;49.230;9.220;2023-05-03T07:58:20;100798.94;;;11.23;81.20
17260;BME280;8746;49.230;9.220;2023-05-03T08:00:45;100790.56;;;11.37;80.74
17260;BME280;8746;49.230;9.220;2023-05-03T08:03:10;100795.28;;;11.28;80.37
17260;BME280;8746;49.230;9.220;2023-05-03T08:05:36;100794.31;;;11.30;81.28
17260;BME280;8746;49.230;9.220;2023-05-03T08:08:01;100792.81;;;11.51;79.75
17260;BME280;8746;49.230;9.220;2023-05-03T08:10:28;100790.19;;;11.50;80.46
17260;BME280;8746;49.230;9.220;2023-05-03T08:12:53;100794.38;;;11.57;79.68
17260;BME280;8746;49.230;9.220;2023-05-03T08:15:19;100787.81;;;11.70;79.88
17260;BME280;8746;49.230;9.220;2023-05-03T08:17:45;100799.22;;;11.73;78.66
17260;BME280;8746;49.230;9.220;2023-05-03T08:20:11;100801.66;;;11.79;79.43
17260;BME280;8746;49.230;9.220;2023-05-03T08:22:37;100795.47;;;11.80;78.42
17260;BME280;8746;49.230;9.220;2023-05-03T08:25:04;100789.66;;;11.97;79.68
17260;BME280;8746;49.230;9.220;2023-05-03T08:27:30;100792.63;;;12.14;79.41
17260;BME280;8746;49.230;9.220;2023-05-03T08:29:56;100792.75;;;12.37;77.31
17260;BME280;8746;49.230;9.220;2023-05-03T08:32:22;100803.72;;;12.51;77.32
17260;BME280;8746;49.230;9.220;2023-05-03T08:34:51;100798.53;;;12.75;76.67
17260;BME280;8746;49.230;9.220;2023-05-03T08:37:16;100798.13;;;12.60;75.46
17260;BME280;8746;49.230;9.220;2023-05-03T08:39:42;100793.41;;;12.69;76.60
17260;BME280;8746;49.230;9.220;2023-05-03T08:42:07;100791.69;;;12.42;75.30
17260;BME280;8746;49.230;9.220;2023-05-03T08:44:36;100796.41;;;12.59;76.07
17260;BME280;8746;49.230;9.220;2023-05-03T08:47:02;100795.38;;;12.63;75.41
17260;BME280;8746;49.230;9.220;2023-05-03T08:49:30;100798.06;;;12.87;74.75
17260;BME280;8746;49.230;9.220;2023-05-03T08:51:55;100793.94;;;13.04;72.75
17260;BME280;8746;49.230;9.220;2023-05-03T08:54:21;100792.78;;;13.11;73.70
17260;BME280;8746;49.230;9.220;2023-05-03T08:56:48;100797.63;;;13.23;73.48
17260;BME280;8746;49.230;9.220;2023-05-03T08:59:14;100797.56;;;13.25;71.36
17260;BME280;8746;49.230;9.220;2023-05-03T09:01:41;100803.34;;;13.36;70.95
17260;BME280;8746;49.230;9.220;2023-05-03T09:04:09;100795.66;;;13.28;71.00
17260;BME280;8746;49.230;9.220;2023-05-03T09:06:34;100798.00;;;13.38;72.90
17260;BME280;8746;49.230;9.220;2023-05-03T09:09:01;100787.16;;;13.44;71.66
17260;BME280;8746;49.230;9.220;2023-05-03T09:11:30;100785.41;;;13.67;72.55
17260;BME280;8746;49.230;9.220;2023-05-03T09:16:34;100790.16;;;13.81;71.42
17260;BME280;8746;49.230;9.220;2023-05-03T09:19:02;100790.97;;;13.83;71.53
17260;BME280;8746;49.230;9.220;2023-05-03T09:21:29;100786.94;;;13.94;71.97
17260;BME280;8746;49.230;9.220;2023-05-03T09:23:56;100786.16;;;13.92;68.71
17260;BME280;8746;49.230;9.220;2023-05-03T09:26:31;100785.97;;;14.18;68.99
17260;BME280;8746;49.230;9.220;2023-05-03T09:29:02;100788.03;;;14.11;68.70
17260;BME280;8746;49.230;9.220;2023-05-03T09:31:28;100775.22;;;14.00;69.86
17260;BME280;8746;49.230;9.220;2023-05-03T09:33:55;100782.47;;;14.17;69.86
17260;BME280;8746;49.230;9.220;2023-05-03T09:36:20;100779.19;;;14.53;69.75
17260;BME280;8746;49.230;9.220;2023-05-03T09:38:46;100779.44;;;14.47;68.06
17260;BME280;8746;49.230;9.220;2023-05-03T09:41:11;100771.06;;;14.36;67.31
17260;BME280;8746;49.230;9.220;2023-05-03T09:43:50;100774.66;;;14.55;67.67
17260;BME280;8746;49.230;9.220;2023-05-03T09:46:16;100779.53;;;14.87;66.25
17260;BME280;8746;49.230;9.220;2023-05-03T09:48:42;100779.63;;;15.23;66.50
17260;BME280;8746;49.230;9.220;2023-05-03T09:51:08;100780.84;;;15.54;65.04
17260;BME280;8746;49.230;9.220;2023-05-03T09:53:35;100773.78;;;15.53;64.83
17260;BME280;8746;49.230;9.220;2023-05-03T09:56:03;100764.00;;;16.10;64.47
17260;BME280;8746;49.230;9.220;2023-05-03T09:58:31;100761.91;;;16.34;62.85
17260;BME280;8746;49.230;9.220;2023-05-03T10:00:58;100768.47;;;16.27;63.60
17260;BME280;8746;49.230;9.220;2023-05-03T10:03:36;100773.28;;;15.83;63.13
17260;BME280;8746;49.230;9.220;2023-05-03T10:06:04;100774.59;;;15.17;65.11
17260;BME280;8746;49.230;9.220;2023-05-03T10:08:40;100776.81;;;15.46;64.38
17260;BME280;8746;49.230;9.220;2023-05-03T10:11:08;100769.69;;;15.46;64.46
17260;BME280;8746;49.230;9.220;2023-05-03T10:13:35;100763.47;;;16.03;63.76
17260;BME280;8746;49.230;9.220;2023-05-03T10:16:11;100766.34;;;15.79;63.71
17260;BME280;8746;49.230;9.220;2023-05-03T10:18:46;100761.16;;;15.59;64.00
17260;BME280;8746;49.230;9.220;2023-05-03T10:21:16;100762.09;;;15.58;64.01
17260;BME280;8746;49.230;9.220;2023-05-03T10:24:08;100768.25;;;15.58;62.57
17260;BME280;8746;49.230;9.220;2023-05-03T10:26:34;100758.50;;;15.39;64.86
17260;BME280;8746;49.230;9.220;2023-05-03T10:28:59;100754.06;;;16.13;64.88
17260;BME280;8746;49.230;9.220;2023-05-03T10:31:44;100757.53;;;16.50;62.24
17260;BME280;8746;49.230;9.220;2023-05-03T10:34:21;100758.75;;;15.71;63.03
17260;BME280;8746;49.230;9.220;2023-05-03T10:36:47;100764.38;;;15.46;63.88
17260;BME280;8746;49.230;9.220;2023-05-03T10:39:15;100757.59;;;15.77;64.98
17260;BME280;8746;49.230;9.220;2023-05-03T10:41:42;100751.69;;;16.60;61.19
17260;BME280;8746;49.230;9.220;2023-05-03T10:44:25;100753.38;;;16.96;59.99
17260;BME280;8746;49.230;9.220;2023-05-03T10:46:52;100746.69;;;17.21;59.36
17260;BME280;8746;49.230;9.220;2023-05-03T10:49:19;100740.19;;;17.42;59.32
17260;BME280;8746;49.230;9.220;2023-05-03T10:51:45;100742.91;;;17.41;57.08
17260;BME280;8746;49.230;9.220;2023-05-03T10:54:10;100729.25;;;17.63;57.23
17260;BME280;8746;49.230;9.220;2023-05-03T10:56:47;100727.28;;;17.51;58.12
17260;BME280;8746;49.230;9.220;2023-05-03T10:59:13;100730.09;;;18.10;56.20
17260;BME280;8746;49.230;9.220;2023-05-03T11:01:40;100720.72;;;18.33;54.76
17260;BME280;8746;49.230;9.220;2023-05-03T11:04:21;100724.59;;;17.67;55.69
17260;BME280;8746;49.230;9.220;2023-05-03T11:06:49;100731.31;;;16.76;58.64
17260;BME280;8746;49.230;9.220;2023-05-03T11:09:29;100721.69;;;16.90;56.71
17260;BME280;8746;49.230;9.220;2023-05-03T11:11:54;100709.78;;;17.61;58.83
17260;BME280;8746;49.230;9.220;2023-05-03T11:14:20;100719.44;;;17.48;56.18
17260;BME280;8746;49.230;9.220;2023-05-03T11:16:45;100711.31;;;18.12;55.98
17260;BME280;8746;49.230;9.220;2023-05-03T11:19:15;100710.59;;;17.47;56.26
17260;BME280;8746;49.230;9.220;2023-05-03T11:21:41;100705.59;;;18.18;56.00
17260;BME280;8746;49.230;9.220;2023-05-03T11:24:07;100703.38;;;17.79;53.85
17260;BME280;8746;49.230;9.220;2023-05-03T11:26:37;100705.50;;;18.50;55.70
17260;BME280;8746;49.230;9.220;2023-05-03T11:29:02;100702.03;;;18.48;53.93
17260;BME280;8746;49.230;9.220;2023-05-03T11:31:28;100697.44;;;18.35;53.44
17260;BME280;8746;49.230;9.220;2023-05-03T11:33:53;100705.34;;;17.76;53.72
17260;BME280;8746;49.230;9.220;2023-05-03T11:36:19;100693.84;;;17.75;53.37
17260;BME280;8746;49.230;9.220;2023-05-03T11:38:44;100686.94;;;18.32;52.42
17260;BME280;8746;49.230;9.220;2023-05-03T11:41:15;100683.41;;;18.89;51.09
17260;BME280;8746;49.230;9.220;2023-05-03T11:43:45;100682.97;;;18.83;50.96
17260;BME280;8746;49.230;9.220;2023-05-03T11:46:16;100680.84;;;18.45;51.57
17260;BME280;8746;49.230;9.220;2023-05-03T11:48:43;100692.34;;;17.86;51.79
17260;BME280;8746;49.230;9.220;2023-05-03T11:51:09;100678.41;;;17.18;55.26
17260;BME280;8746;49.230;9.220;2023-05-03T11:53:39;100669.94;;;18.19;53.60
17260;BME280;8746;49.230;9.220;2023-05-03T11:56:10;100681.22;;;17.93;52.29
17260;BME280;8746;49.230;9.220;2023-05-03T11:58:51;100674.59;;;18.15;50.73
17260;BME280;8746;49.230;9.220;2023-05-03T12:01:18;100678.16;;;18.16;52.18
17260;BME280;8746;49.230;9.220;2023-05-03T12:03:45;100677.81;;;18.36;49.71
17260;BME280;8746;49.230;9.220;2023-05-03T12:06:14;100677.78;;;19.09;49.84
17260;BME280;8746;49.230;9.220;2023-05-03T12:08:41;100676.44;;;19.16;49.81
17260;BME280;8746;49.230;9.220;2023-05-03T12:11:06;100680.03;;;19.57;48.83
17260;BME280;8746;49.230;9.220;2023-05-03T12:13:33;100682.38;;;18.63;47.75
17260;BME280;8746;49.230;9.220;2023-05-03T12:16:03;100674.72;;;19.42;48.17
17260;BME280;8746;49.230;9.220;2023-05-03T12:18:54;100669.03;;;19.74;48.38
17260;BME280;8746;49.230;9.220;2023-05-03T12:21:47;100666.53;;;19.58;46.33
17260;BME280;8746;49.230;9.220;2023-05-03T12:24:12;100672.19;;;19.53;48.63
17260;BME280;8746;49.230;9.220;2023-05-03T12:26:43;100673.78;;;20.24;47.70
17260;BME280;8746;49.230;9.220;2023-05-03T12:29:08;100669.97;;;19.05;48.52
17260;BME280;8746;49.230;9.220;2023-05-03T12:31:33;100660.50;;;19.42;47.92
17260;BME280;8746;49.230;9.220;2023-05-03T12:33:58;100657.03;;;20.33;45.24
17260;BME280;8746;49.230;9.220;2023-05-03T12:36:24;100650.91;;;20.05;45.84
17260;BME280;8746;49.230;9.220;2023-05-03T12:38:50;100647.25;;;19.53;45.90
17260;BME280;8746;49.230;9.220;2023-05-03T12:41:16;100649.66;;;20.49;44.67
17260;BME280;8746;49.230;9.220;2023-05-03T12:43:41;100638.19;;;21.59;43.08
17260;BME280;8746;49.230;9.220;2023-05-03T12:46:06;100633.63;;;22.53;41.27
17260;BME280;8746;49.230;9.220;2023-05-03T12:48:32;100639.78;;;21.13;41.54
17260;BME280;8746;49.230;9.220;2023-05-03T12:50:57;100638.78;;;21.38;42.21
17260;BME280;8746;49.230;9.220;2023-05-03T12:53:24;100633.03;;;22.61;40.11
17260;BME280;8746;49.230;9.220;2023-05-03T12:55:49;100628.72;;;23.90;36.97
17260;BME280;8746;49.230;9.220;2023-05-03T12:58:15;100639.50;;;22.59;40.08
17260;BME280;8746;49.230;9.220;2023-05-03T13:00:41;100638.41;;;21.56;38.82
17260;BME280;8746;49.230;9.220;2023-05-03T13:03:07;100629.44;;;22.95;37.69
17260;BME280;8746;49.230;9.220;2023-05-03T13:05:33;100629.84;;;23.34;37.30
17260;BME280;8746;49.230;9.220;2023-05-03T13:07:59;100631.53;;;22.80;38.35
17260;BME280;8746;49.230;9.220;2023-05-03T13:10:25;100619.00;;;22.46;38.19